地図

経路データ

SID SEASON NUMBER BASIN SUBBASIN NAME ISO_TIME NATURE LAT LON WMO_WIND WMO_PRES WMO_AGENCY TRACK_TYPE DIST2LAND LANDFALL IFLAG USA_AGENCY USA_ATCF_ID USA_LAT USA_LON USA_RECORD USA_STATUS USA_WIND USA_PRES USA_SSHS USA_R34_NE USA_R34_SE USA_R34_SW USA_R34_NW USA_R50_NE USA_R50_SE USA_R50_SW USA_R50_NW USA_R64_NE USA_R64_SE USA_R64_SW USA_R64_NW USA_POCI USA_ROCI USA_RMW USA_EYE TOKYO_LAT TOKYO_LON TOKYO_GRADE TOKYO_WIND TOKYO_PRES TOKYO_R50_DIR TOKYO_R50_LONG TOKYO_R50_SHORT TOKYO_R30_DIR TOKYO_R30_LONG TOKYO_R30_SHORT TOKYO_LAND CMA_LAT CMA_LON CMA_CAT CMA_WIND CMA_PRES HKO_LAT HKO_LON HKO_CAT HKO_WIND HKO_PRES NEWDELHI_LAT NEWDELHI_LON NEWDELHI_GRADE NEWDELHI_WIND NEWDELHI_PRES NEWDELHI_CI NEWDELHI_DP NEWDELHI_POCI REUNION_LAT REUNION_LON REUNION_TYPE REUNION_WIND REUNION_PRES REUNION_TNUM REUNION_CI REUNION_RMW REUNION_R34_NE REUNION_R34_SE REUNION_R34_SW REUNION_R34_NW REUNION_R50_NE REUNION_R50_SE REUNION_R50_SW REUNION_R50_NW REUNION_R64_NE REUNION_R64_SE REUNION_R64_SW REUNION_R64_NW BOM_LAT BOM_LON BOM_TYPE BOM_WIND BOM_PRES BOM_TNUM BOM_CI BOM_RMW BOM_R34_NE BOM_R34_SE BOM_R34_SW BOM_R34_NW BOM_R50_NE BOM_R50_SE BOM_R50_SW BOM_R50_NW BOM_R64_NE BOM_R64_SE BOM_R64_SW BOM_R64_NW BOM_ROCI BOM_POCI BOM_EYE BOM_POS_METHOD BOM_PRES_METHOD NADI_LAT NADI_LON NADI_CAT NADI_WIND NADI_PRES WELLINGTON_LAT WELLINGTON_LON WELLINGTON_WIND WELLINGTON_PRES DS824_LAT DS824_LON DS824_STAGE DS824_WIND DS824_PRES TD9636_LAT TD9636_LON TD9636_STAGE TD9636_WIND TD9636_PRES TD9635_LAT TD9635_LON TD9635_WIND TD9635_PRES TD9635_ROCI NEUMANN_LAT NEUMANN_LON NEUMANN_CLASS NEUMANN_WIND NEUMANN_PRES MLC_LAT MLC_LON MLC_CLASS MLC_WIND MLC_PRES USA_GUST BOM_GUST BOM_GUST_PER REUNION_GUST REUNION_GUST_PER USA_SEAHGT USA_SEARAD_NE USA_SEARAD_SE USA_SEARAD_SW USA_SEARAD_NW STORM_SPEED STORM_DIR
1959044S10183 1959 19 SP MM NOT_NAMED 1959-02-12 12:00:00 TS -10.0000 -176.700 main 578 562 O________OO___ jtwc_sh SH201959 -10.0000 -176.700 -1 -10.0000 183.300 TC 35 -10.0000 -176.700 2 4 167
1959044S10183 1959 19 SP MM NOT_NAMED 1959-02-12 15:00:00 TS -10.1850 -176.653 main 562 539 P________PP___ SH201959 -10.1900 -176.668 -1 -10.1900 -176.668 TC 35 -10.1751 -176.623 2 4 163
1959044S10183 1959 19 SP MM NOT_NAMED 1959-02-12 18:00:00 TS -10.3934 -176.579 main 539 517 O________OP___ jtwc_sh SH201959 -10.4000 -176.600 -1 -10.4000 183.400 TC 35 -10.3801 -176.537 2 5 158
1959044S10183 1959 19 SP MM NOT_NAMED 1959-02-12 21:00:00 TS -10.6517 -176.459 main 510 472 P________PP___ SH201959 -10.6550 -176.472 -1 -10.6550 -176.472 TC 35 -10.6451 -176.433 2 7 156
1959044S10183 1959 19 SP MM NOT_NAMED 1959-02-13 00:00:00 TS -11.0000 -176.300 main 472 428 O________OO___ jtwc_sh SH201959 -11.0000 -176.300 -1 -11.0000 183.700 TC 35 -11.0000 -176.300 2 9 158
1959044S10183 1959 19 SP MM NOT_NAMED 1959-02-13 03:00:00 TS -11.4668 -176.120 main 422 376 P________PP___ SH201959 -11.4700 -176.115 -1 -11.4700 -176.115 TC 35 -11.4605 -176.131 2 11 159
1959044S10183 1959 19 SP MM NOT_NAMED 1959-02-13 06:00:00 TS -11.9950 -175.908 main 376 333 O________OP___ jtwc_sh SH201959 -12.0000 -175.900 -1 -12.0000 184.100 TC 35 -11.9849 -175.925 2 12 157
1959044S10183 1959 19 SP MM NOT_NAMED 1959-02-13 09:00:00 TS -12.5306 -175.670 main 333 287 P________PP___ SH201959 -12.5375 -175.665 -1 -12.5375 -175.665 TC 35 -12.5168 -175.681 2 11 154
1959044S10183 1959 19 SP MM NOT_NAMED 1959-02-13 12:00:00 TS -13.0000 -175.400 main 287 249 O________OO___ jtwc_sh SH201959 -13.0000 -175.400 -1 -13.0000 184.600 TC 35 -13.0000 -175.400 2 9 145
1959044S10183 1959 19 SP MM NOT_NAMED 1959-02-13 15:00:00 TS -13.2789 -175.130 main 249 216 P________PP___ SH201959 -13.2724 -175.122 -1 -13.2724 -175.122 TC 35 -13.2918 -175.145 2 8 132
1959044S10183 1959 19 SP MM NOT_NAMED 1959-02-13 18:00:00 TS -13.5130 -174.815 main 216 185 O________OP___ jtwc_sh SH201959 -13.5000 -174.800 -1 -13.5000 185.200 TC 35 -13.5389 -174.846 2 8 129
1959044S10183 1959 19 SP MM NOT_NAMED 1959-02-13 21:00:00 TS -13.7987 -174.465 main 186 151 P________PP___ SH201959 -13.7897 -174.459 -1 -13.7897 -174.459 TC 35 -13.8165 -174.475 2 11 131
1959044S10183 1959 19 SP MM NOT_NAMED 1959-02-14 00:00:00 TS -14.2000 -174.000 main 151 132 O________OO___ jtwc_sh SH201959 -14.2000 -174.000 -1 -14.2000 186.000 TC 35 -14.2000 -174.000 2 15 132
1959044S10183 1959 19 SP MM NOT_NAMED 1959-02-14 03:00:00 TS -14.7835 -173.348 main 135 135 P________PP___ SH201959 -14.7901 -173.352 -1 -14.7901 -173.352 TC 35 -14.7704 -173.340 2 19 133
1959044S10183 1959 19 SP MM NOT_NAMED 1959-02-14 06:00:00 TS -15.4842 -172.594 main 190 190 O________OP___ jtwc_sh SH201959 -15.5000 -172.600 -1 -15.5000 187.400 TC 35 -15.4526 -172.583 2 21 134
1959044S10183 1959 19 SP MM NOT_NAMED 1959-02-14 09:00:00 TS -16.2212 -171.816 main 272 272 P________PP___ SH201959 -16.2277 -171.820 -1 -16.2277 -171.820 TC 35 -16.2082 -171.808 2 21 137
1959044S10183 1959 19 SP MM NOT_NAMED 1959-02-14 12:00:00 TS -17.0000 -171.100 main 377 377 O________OO___ jtwc_sh SH201959 -17.0000 -171.100 -1 -17.0000 188.900 TC 35 -17.0000 -171.100 2 20 142
1959044S10183 1959 19 SP MM NOT_NAMED 1959-02-14 15:00:00 TS -17.7875 -170.544 main 483 483 P________PP___ SH201959 -17.7921 -170.547 -1 -17.7921 -170.547 TC 35 -17.7783 -170.538 2 19 149
1959044S10183 1959 19 SP MM NOT_NAMED 1959-02-14 18:00:00 TS -18.5946 -170.086 main 582 582 O________OP___ jtwc_sh SH201959 -18.6000 -170.100 -1 -18.6000 189.900 TC 35 -18.5838 -170.057 2 18 153
1959044S10183 1959 19 SP MM NOT_NAMED 1959-02-14 21:00:00 TS -19.4041 -169.657 main 680 680 P________PP___ SH201959 -19.4074 -169.662 -1 -19.4074 -169.662 TC 35 -19.3975 -169.647 2 18 155
1959044S10183 1959 19 SP MM NOT_NAMED 1959-02-15 00:00:00 TS -20.2000 -169.300 main 779 779 O________OO___ jtwc_sh SH201959 -20.2000 -169.300 -1 -20.2000 190.700 TC 35 -20.2000 -169.300 2 17 159
1959044S10183 1959 19 SP MM NOT_NAMED 1959-02-15 03:00:00 TS -20.9715 -169.020 main 874 874 P________PP___ SH201959 -20.9573 -169.027 -1 -20.9573 -169.027 TC 35 -20.9999 -169.007 2 16 163
1959044S10183 1959 19 SP MM NOT_NAMED 1959-02-15 06:00:00 TS -21.7270 -168.789 main 954 954 O________OP___ jtwc_sh SH201959 -21.7000 -168.800 -1 -21.7000 191.200 TC 35 -21.7811 -168.767 2 16 164
1959044S10183 1959 19 SP MM NOT_NAMED 1959-02-15 09:00:00 TS -22.4889 -168.558 main 1044 1044 P________PP___ SH201959 -22.4724 -168.565 -1 -22.4724 -168.565 TC 35 -22.5219 -168.544 2 15 163
1959044S10183 1959 19 SP MM NOT_NAMED 1959-02-15 12:00:00 TS -23.2000 -168.300 main 1128 1128 O________OO___ jtwc_sh SH201959 -23.2000 -168.300 -1 -23.2000 191.700 TC 35 -23.2000 -168.300 2 15 158
1959044S10183 1959 19 SP MM NOT_NAMED 1959-02-15 15:00:00 TS -23.8301 -167.978 main 1202 1202 P________PP___ SH201959 -23.8450 -167.965 -1 -23.8450 -167.965 TC 35 -23.8003 -168.005 2 13 152
1959044S10183 1959 19 SP MM NOT_NAMED 1959-02-15 18:00:00 TS -24.3788 -167.621 main 1280 1280 O________OP___ jtwc_sh SH201959 -24.4000 -167.600 -1 -24.4000 192.400 TC 35 -24.3364 -167.663 2 12 148
1959044S10183 1959 19 SP MM NOT_NAMED 1959-02-15 21:00:00 TS -24.8582 -167.260 main 1343 1343 P________PP___ SH201959 -24.8726 -167.245 -1 -24.8726 -167.245 TC 35 -24.8293 -167.290 2 11 145
1959044S10183 1959 19 SP MM NOT_NAMED 1959-02-16 00:00:00 TS -25.3000 -166.900 main 1400 O________OO___ jtwc_sh SH201959 -25.3000 -166.900 -1 -25.3000 193.100 TC 35 -25.3000 -166.900 2 11 143

デジタル台風データ・検索

IBTrACS Databaseについて

本データベースは、米国NOAAが公開する1842年以降の世界の熱帯低気圧のベストトラックデータアーカイブInternational Best Track Archive for Climate Stewardship (IBTrACS)を、ウェブで閲覧しやすい形式に変換したものです。

最終更新日:2021-10-19